createdAt,value
2022-12-09T00:02:23.743Z,42.13
2022-12-09T00:04:50.917Z,43.88
2022-12-09T00:07:18.134Z,45.50
2022-12-09T00:09:45.422Z,47.45
2022-12-09T00:12:12.400Z,46.72
2022-12-09T00:14:39.308Z,44.97
2022-12-09T00:17:06.805Z,45.55
2022-12-09T00:19:35.282Z,46.28
2022-12-09T00:22:02.217Z,46.15
2022-12-09T00:24:29.223Z,46.30
2022-12-09T00:26:57.084Z,49.50
2022-12-09T00:29:24.085Z,56.92
2022-12-09T00:31:51.259Z,52.13
2022-12-09T00:34:18.472Z,49.92
2022-12-09T00:36:45.608Z,50.10
2022-12-09T00:39:13.232Z,54.97
2022-12-09T00:41:40.520Z,51.70
2022-12-09T00:44:07.901Z,52.03
2022-12-09T00:46:35.137Z,49.72
2022-12-09T00:49:03.803Z,45.67
2022-12-09T00:51:31.015Z,50.08
2022-12-09T00:53:58.194Z,51.83
2022-12-09T00:56:28.496Z,51.83
2022-12-09T00:58:57.076Z,47.75
2022-12-09T01:01:24.496Z,47.85
2022-12-09T01:03:51.744Z,49.33
2022-12-09T01:06:21.612Z,49.40
2022-12-09T01:08:49.287Z,54.35
2022-12-09T01:11:25.328Z,49.60
2022-12-09T01:13:53.192Z,48.90
2022-12-09T01:16:26.095Z,49.20
2022-12-09T01:18:54.789Z,47.92
2022-12-09T01:21:22.192Z,46.72
2022-12-09T01:23:49.445Z,42.55
2022-12-09T01:26:16.697Z,47.42
2022-12-09T01:28:44.049Z,44.10
2022-12-09T01:31:12.663Z,44.83
2022-12-09T01:33:40.936Z,43.33
2022-12-09T01:36:17.625Z,46.30
2022-12-09T01:38:45.877Z,45.30
2022-12-09T01:41:14.278Z,45.38
2022-12-09T01:43:41.493Z,44.92
2022-12-09T01:46:09.032Z,43.88
2022-12-09T01:48:43.483Z,47.97
2022-12-09T01:51:19.566Z,35.53
2022-12-09T01:53:50.093Z,36.67
2022-12-09T01:56:25.574Z,34.70
2022-12-09T01:58:54.321Z,32.10
2022-12-09T02:01:22.454Z,31.35
2022-12-09T02:03:49.894Z,31.42
2022-12-09T02:06:17.884Z,30.77
2022-12-09T02:08:46.661Z,33.58
2022-12-09T02:11:31.958Z,31.83
2022-12-09T02:14:05.657Z,30.58
2022-12-09T02:16:41.118Z,30.15
2022-12-09T02:19:49.435Z,28.67
2022-12-09T02:22:23.561Z,28.08
2022-12-09T02:24:59.391Z,28.17
2022-12-09T02:27:37.827Z,27.85
2022-12-09T02:30:21.429Z,28.50
2022-12-09T02:33:08.740Z,26.45
2022-12-09T02:35:53.736Z,25.15
2022-12-09T02:38:25.920Z,25.15
2022-12-09T02:41:12.634Z,25.30
2022-12-09T02:43:49.917Z,27.52
2022-12-09T02:46:20.311Z,26.27
2022-12-09T02:48:55.360Z,27.15
2022-12-09T02:51:24.623Z,25.15
2022-12-09T02:53:59.736Z,30.52
2022-12-09T02:56:28.004Z,28.02
2022-12-09T02:58:55.271Z,28.70
2022-12-09T03:01:36.823Z,27.02
2022-12-09T03:04:04.932Z,27.80
2022-12-09T03:06:42.177Z,28.33
2022-12-09T03:09:27.701Z,26.90
2022-12-09T03:11:59.520Z,25.27
2022-12-09T03:14:34.106Z,26.42
2022-12-09T03:17:08.788Z,24.30
2022-12-09T03:19:42.553Z,25.35
2022-12-09T03:22:14.798Z,22.10
2022-12-09T03:25:06.398Z,23.43
2022-12-09T03:27:44.351Z,20.90
2022-12-09T03:30:12.258Z,22.70
2022-12-09T03:32:42.083Z,22.95
2022-12-09T03:35:18.896Z,21.15
2022-12-09T03:37:48.423Z,23.58
2022-12-09T03:40:20.235Z,24.80
2022-12-09T03:42:53.217Z,23.58
2022-12-09T03:45:20.981Z,22.92
2022-12-09T03:47:48.248Z,23.08
2022-12-09T03:50:15.752Z,23.42
2022-12-09T03:52:49.106Z,24.25
2022-12-09T03:55:26.432Z,25.70
2022-12-09T03:57:57.452Z,25.15
2022-12-09T04:00:24.512Z,25.27
2022-12-09T04:02:51.820Z,24.33
2022-12-09T04:05:19.161Z,24.73
2022-12-09T04:07:46.390Z,25.00
2022-12-09T04:10:13.925Z,27.25
2022-12-09T04:12:40.982Z,25.08
2022-12-09T04:15:10.314Z,23.23
2022-12-09T04:17:37.824Z,22.08
2022-12-09T04:20:06.894Z,22.40
2022-12-09T04:22:34.756Z,22.27
2022-12-09T04:25:01.777Z,26.10
2022-12-09T04:27:28.797Z,23.73
2022-12-09T04:29:55.775Z,24.00
2022-12-09T04:32:23.249Z,23.20
2022-12-09T04:34:50.270Z,24.10
2022-12-09T04:37:17.372Z,24.05
2022-12-09T04:39:44.317Z,23.25
2022-12-09T04:42:11.584Z,24.80
2022-12-09T04:44:38.639Z,24.15
2022-12-09T04:47:05.897Z,23.88
2022-12-09T04:49:33.027Z,24.08
2022-12-09T04:52:00.176Z,23.98
2022-12-09T04:54:27.239Z,23.08
2022-12-09T04:56:54.238Z,24.58
2022-12-09T04:59:21.172Z,25.52
2022-12-09T05:01:48.400Z,24.20
2022-12-09T05:04:16.289Z,22.35
2022-12-09T05:06:43.552Z,21.77
2022-12-09T05:09:12.829Z,22.98
2022-12-09T05:11:41.029Z,22.52
2022-12-09T05:14:08.432Z,23.08
2022-12-09T05:16:35.802Z,24.38
2022-12-09T05:19:03.201Z,26.38
2022-12-09T05:21:30.772Z,30.33
2022-12-09T05:23:58.237Z,25.83
2022-12-09T05:26:25.777Z,25.73
2022-12-09T05:28:53.112Z,25.73
2022-12-09T05:31:22.278Z,26.73
2022-12-09T05:33:51.353Z,25.77
2022-12-09T05:36:24.788Z,23.38
2022-12-09T05:38:52.776Z,25.13
2022-12-09T05:41:21.118Z,22.23
2022-12-09T05:43:48.453Z,23.95
2022-12-09T05:46:16.750Z,24.08
2022-12-09T05:48:44.583Z,23.67
2022-12-09T05:51:19.953Z,25.52
2022-12-09T05:53:47.025Z,23.58
2022-12-09T05:56:18.705Z,23.13
2022-12-09T05:58:46.873Z,23.95
2022-12-09T06:01:14.876Z,22.35
2022-12-09T06:03:42.202Z,23.40
2022-12-09T06:06:14.758Z,24.33
2022-12-09T06:08:43.680Z,25.15
2022-12-09T06:11:22.018Z,24.83
2022-12-09T06:13:50.665Z,22.83
2022-12-09T06:16:20.365Z,23.70
2022-12-09T06:18:48.888Z,24.02
2022-12-09T06:21:18.355Z,24.90
2022-12-09T06:23:45.660Z,27.02
2022-12-09T06:26:21.509Z,24.95
2022-12-09T06:28:49.537Z,23.70
2022-12-09T06:31:17.347Z,24.63
2022-12-09T06:33:54.852Z,27.25
2022-12-09T06:36:23.497Z,29.05
2022-12-09T06:38:50.883Z,32.25
2022-12-09T06:41:17.961Z,34.20
2022-12-09T06:43:45.457Z,33.47
2022-12-09T06:46:17.930Z,33.03
2022-12-09T06:48:45.548Z,33.15
2022-12-09T06:51:13.032Z,36.78
2022-12-09T06:53:40.309Z,34.75
2022-12-09T06:56:12.095Z,35.00
2022-12-09T06:58:42.178Z,33.20
2022-12-09T07:01:18.272Z,34.35
2022-12-09T07:03:48.212Z,35.60
2022-12-09T07:06:34.042Z,34.28
2022-12-09T07:09:05.528Z,33.88
2022-12-09T07:11:33.034Z,36.03
2022-12-09T07:14:01.352Z,35.45
2022-12-09T07:16:29.295Z,33.80
2022-12-09T07:18:57.395Z,32.42
2022-12-09T07:21:25.088Z,34.33
2022-12-09T07:23:53.293Z,33.00
2022-12-09T07:26:20.742Z,36.38
2022-12-09T07:28:50.193Z,34.90
2022-12-09T07:31:22.776Z,35.13
2022-12-09T07:33:51.694Z,35.67
2022-12-09T07:36:21.424Z,37.28
2022-12-09T07:38:50.246Z,38.67
2022-12-09T07:41:20.294Z,35.70
2022-12-09T07:43:48.221Z,38.13
2022-12-09T07:46:17.304Z,35.85
2022-12-09T07:48:45.073Z,37.67
2022-12-09T07:51:12.645Z,36.67
2022-12-09T07:53:39.902Z,38.65
2022-12-09T07:56:11.987Z,38.80
2022-12-09T07:58:39.735Z,39.00
2022-12-09T08:01:12.744Z,36.25
2022-12-09T08:03:40.457Z,37.47
2022-12-09T08:06:07.886Z,36.53
2022-12-09T08:08:35.786Z,37.63
2022-12-09T08:11:16.324Z,35.83
2022-12-09T08:13:44.415Z,36.55
2022-12-09T08:16:14.413Z,35.10
2022-12-09T08:18:43.073Z,34.33
2022-12-09T08:21:14.693Z,34.15
2022-12-09T08:23:42.046Z,36.88
2022-12-09T08:26:11.152Z,36.38
2022-12-09T08:28:38.742Z,35.65
2022-12-09T08:31:11.782Z,37.83
2022-12-09T08:33:40.631Z,34.83
2022-12-09T08:36:19.881Z,36.97
2022-12-09T08:38:47.464Z,39.63
2022-12-09T08:41:22.200Z,36.95
2022-12-09T08:43:49.973Z,35.95
2022-12-09T08:46:17.130Z,33.85
2022-12-09T08:48:44.775Z,33.92
2022-12-09T08:51:12.707Z,34.67
2022-12-09T08:53:40.688Z,35.92
2022-12-09T08:56:12.892Z,37.47
2022-12-09T08:58:41.098Z,39.22
2022-12-09T09:01:15.147Z,39.58
2022-12-09T09:03:43.731Z,37.85
2022-12-09T09:06:11.650Z,35.70
2022-12-09T09:08:40.327Z,36.67
2022-12-09T09:11:20.615Z,39.80
2022-12-09T09:13:51.771Z,38.72
2022-12-09T09:16:21.860Z,37.85
2022-12-09T09:18:49.895Z,38.92
2022-12-09T09:21:19.654Z,38.45
2022-12-09T09:23:47.454Z,39.22
2022-12-09T09:26:17.318Z,43.83
2022-12-09T09:28:45.226Z,48.45
2022-12-09T09:31:15.311Z,52.95
2022-12-09T09:33:42.801Z,56.72
2022-12-09T09:36:19.447Z,55.78
2022-12-09T09:38:47.788Z,55.83
2022-12-09T09:41:27.222Z,55.60
2022-12-09T09:43:56.344Z,54.05
2022-12-09T09:46:38.121Z,54.08
2022-12-09T09:49:11.230Z,57.17
2022-12-09T09:54:09.026Z,52.88
2022-12-09T09:56:43.849Z,51.17
2022-12-09T09:59:54.993Z,50.42
2022-12-09T10:02:49.324Z,51.35
2022-12-09T10:05:24.080Z,49.60
2022-12-09T10:07:59.217Z,50.08
2022-12-09T10:10:42.418Z,48.80
2022-12-09T10:13:38.664Z,47.70
2022-12-09T10:16:21.987Z,51.75
2022-12-09T10:21:42.175Z,45.45
2022-12-09T10:24:27.677Z,43.97
2022-12-09T10:27:14.635Z,45.10
2022-12-09T10:30:00.926Z,48.17
2022-12-09T10:32:33.720Z,48.30
2022-12-09T10:35:02.434Z,45.38
2022-12-09T10:37:35.355Z,44.50
2022-12-09T10:40:08.456Z,46.30
2022-12-09T10:43:08.049Z,48.85
2022-12-09T10:46:15.811Z,45.15
2022-12-09T10:48:37.866Z,48.00
2022-12-09T10:51:12.188Z,44.30
2022-12-09T10:53:55.330Z,45.40
2022-12-09T10:56:36.698Z,45.15
2022-12-09T10:59:25.674Z,50.47
2022-12-09T11:02:20.290Z,52.60
2022-12-09T11:04:54.710Z,55.78
2022-12-09T11:07:27.891Z,52.38
2022-12-09T11:12:33.455Z,49.95
2022-12-09T11:15:32.420Z,51.70
2022-12-09T11:18:08.965Z,53.63
2022-12-09T11:20:36.889Z,52.78
2022-12-09T11:23:14.334Z,51.22
2022-12-09T11:25:55.045Z,53.70
2022-12-09T11:28:27.718Z,52.90
2022-12-09T11:31:28.922Z,52.20
2022-12-09T11:34:00.333Z,52.15
2022-12-09T11:36:43.959Z,51.92
2022-12-09T11:39:33.057Z,56.53
2022-12-09T11:42:27.339Z,55.28
2022-12-09T11:44:54.243Z,53.40
2022-12-09T11:47:36.529Z,56.88
2022-12-09T11:50:21.160Z,62.17
2022-12-09T11:53:10.916Z,59.90
2022-12-09T11:55:55.515Z,63.33
2022-12-09T11:58:26.500Z,63.40
2022-12-09T12:01:08.302Z,62.83
2022-12-09T12:03:41.323Z,62.75
2022-12-09T12:09:43.306Z,59.30
2022-12-09T12:12:15.180Z,59.70
2022-12-09T12:14:43.569Z,65.93
2022-12-09T12:17:26.129Z,68.28
2022-12-09T12:19:56.408Z,69.82
2022-12-09T12:22:54.630Z,68.05
2022-12-09T12:25:32.692Z,69.65
2022-12-09T12:28:11.576Z,67.07
2022-12-09T12:30:47.447Z,63.67
2022-12-09T12:34:23.148Z,63.92
2022-12-09T12:36:44.168Z,67.07
2022-12-09T12:43:17.540Z,62.33
2022-12-09T12:46:08.875Z,67.20
2022-12-09T12:49:05.243Z,72.97
2022-12-09T12:51:59.572Z,66.13
2022-12-09T12:54:41.356Z,65.45
2022-12-09T12:57:22.343Z,65.07
2022-12-09T12:59:56.679Z,73.10
2022-12-09T13:02:31.300Z,72.78
2022-12-09T13:05:03.890Z,68.82
2022-12-09T13:07:36.973Z,70.65
2022-12-09T13:12:54.458Z,60.50
2022-12-09T13:15:36.270Z,58.42
2022-12-09T13:18:29.179Z,55.03
2022-12-09T13:20:58.483Z,61.90
2022-12-09T13:23:37.296Z,56.72
2022-12-09T13:26:23.491Z,55.88
2022-12-09T13:29:05.543Z,51.80
2022-12-09T13:31:35.096Z,54.15
2022-12-09T13:34:17.177Z,59.03
2022-12-09T13:36:46.801Z,58.00
2022-12-09T13:39:39.550Z,59.58
2022-12-09T13:42:46.622Z,63.83
2022-12-09T13:45:20.128Z,63.28
2022-12-09T13:47:47.679Z,69.75
2022-12-09T13:50:34.422Z,73.28
2022-12-09T13:53:07.481Z,76.18
2022-12-09T13:58:35.026Z,74.63
2022-12-09T14:01:11.499Z,73.93
2022-12-09T14:04:01.411Z,73.40
2022-12-09T14:06:31.779Z,66.25
2022-12-09T14:09:06.809Z,71.18
2022-12-09T14:11:42.678Z,69.45
2022-12-09T14:14:23.532Z,67.28
2022-12-09T14:17:17.099Z,72.03
2022-12-09T14:22:18.750Z,65.75
2022-12-09T14:24:50.843Z,69.72
2022-12-09T14:27:21.945Z,71.70
2022-12-09T14:30:23.966Z,66.93
2022-12-09T14:32:50.844Z,70.03
2022-12-09T14:35:25.924Z,68.78
2022-12-09T14:37:55.928Z,65.95
2022-12-09T14:40:36.329Z,67.28
2022-12-09T14:43:19.873Z,69.00
2022-12-09T14:45:57.845Z,68.38
2022-12-09T14:48:28.352Z,62.58
2022-12-09T14:51:21.494Z,65.25
2022-12-09T14:53:57.760Z,57.67
2022-12-09T14:56:28.733Z,59.30
2022-12-09T14:59:07.683Z,57.85
2022-12-09T15:01:53.395Z,58.00
2022-12-09T15:04:31.429Z,60.55
2022-12-09T15:07:15.155Z,62.90
2022-12-09T15:10:01.515Z,63.25
2022-12-09T15:12:54.975Z,65.22
2022-12-09T15:15:25.811Z,63.03
2022-12-09T15:18:01.955Z,65.50
2022-12-09T15:21:01.638Z,70.35
2022-12-09T15:23:38.216Z,71.15
2022-12-09T15:26:17.714Z,75.90
2022-12-09T15:28:48.431Z,70.45
2022-12-09T15:31:24.271Z,69.90
2022-12-09T15:33:54.164Z,68.63
2022-12-09T15:36:38.391Z,68.00
2022-12-09T15:39:08.900Z,69.07
2022-12-09T15:42:00.844Z,67.00
2022-12-09T15:44:32.589Z,63.10
2022-12-09T15:47:05.568Z,66.80
2022-12-09T15:49:42.426Z,67.88
2022-12-09T15:52:10.732Z,61.17
2022-12-09T15:54:40.867Z,70.60
2022-12-09T15:57:11.201Z,69.43
2022-12-09T15:59:55.684Z,68.32
2022-12-09T16:02:31.987Z,68.70
2022-12-09T16:05:05.450Z,69.63
2022-12-09T16:07:35.326Z,73.15
2022-12-09T16:10:13.684Z,73.47
2022-12-09T16:12:42.345Z,70.03
2022-12-09T16:15:13.904Z,71.55
2022-12-09T16:17:55.360Z,67.07
2022-12-09T16:20:29.941Z,67.10
2022-12-09T16:22:57.586Z,67.90
2022-12-09T16:25:27.103Z,67.10
2022-12-09T16:28:04.140Z,62.75
2022-12-09T16:30:33.562Z,60.22
2022-12-09T16:33:03.028Z,68.10
2022-12-09T16:35:43.037Z,64.68
2022-12-09T16:38:09.947Z,63.65
2022-12-09T16:41:02.007Z,65.35
2022-12-09T16:43:30.546Z,69.57
2022-12-09T16:46:20.417Z,65.07
2022-12-09T16:48:49.430Z,65.82
2022-12-09T16:51:21.665Z,63.53
2022-12-09T16:53:51.090Z,62.67
2022-12-09T16:56:26.986Z,63.85
2022-12-09T16:58:54.902Z,66.60
2022-12-09T17:01:25.668Z,69.15
2022-12-09T17:03:53.942Z,62.58
2022-12-09T17:06:21.131Z,63.28
2022-12-09T17:08:48.302Z,72.18
2022-12-09T17:11:16.981Z,69.00
2022-12-09T17:13:44.077Z,73.28
2022-12-09T17:16:11.336Z,68.00
2022-12-09T17:18:39.516Z,70.32
2022-12-09T17:21:10.144Z,67.05
2022-12-09T17:23:40.230Z,69.40
2022-12-09T17:26:09.928Z,68.88
2022-12-09T17:28:37.815Z,66.70
2022-12-09T17:31:13.770Z,70.90
2022-12-09T17:33:41.227Z,63.40
2022-12-09T17:36:08.550Z,67.82
2022-12-09T17:38:35.704Z,72.00
2022-12-09T17:41:07.582Z,76.47
2022-12-09T17:43:35.424Z,78.78
2022-12-09T17:46:04.071Z,81.47
2022-12-09T17:48:31.915Z,75.88
2022-12-09T17:50:59.273Z,76.65
2022-12-09T17:53:26.250Z,80.45
2022-12-09T17:55:53.231Z,69.20
2022-12-09T17:58:20.125Z,70.05
2022-12-09T18:00:47.952Z,72.55
2022-12-09T18:03:27.505Z,69.75
2022-12-09T18:06:02.144Z,76.00
2022-12-09T18:08:30.162Z,66.18
2022-12-09T18:10:57.233Z,67.20
2022-12-09T18:13:24.245Z,65.68
2022-12-09T18:15:54.422Z,66.63
2022-12-09T18:18:21.860Z,65.63
2022-12-09T18:20:49.132Z,66.28
2022-12-09T18:23:16.453Z,69.78
2022-12-09T18:25:43.676Z,66.93
2022-12-09T18:28:10.650Z,69.20
2022-12-09T18:30:39.679Z,76.22
2022-12-09T18:33:07.086Z,71.47
2022-12-09T18:35:48.087Z,70.25
2022-12-09T18:38:17.675Z,67.95
2022-12-09T18:41:03.294Z,66.85
2022-12-09T18:43:33.448Z,69.97
2022-12-09T18:46:07.230Z,60.80
2022-12-09T18:48:34.640Z,62.90
2022-12-09T18:51:01.825Z,68.55
2022-12-09T18:53:29.149Z,64.68
2022-12-09T18:55:56.364Z,54.55
2022-12-09T18:58:36.862Z,59.15
2022-12-09T19:01:31.028Z,60.45
2022-12-09T19:04:01.550Z,52.80
2022-12-09T19:06:34.076Z,57.53
2022-12-09T19:09:09.949Z,57.42
2022-12-09T19:11:39.514Z,55.95
2022-12-09T19:14:08.414Z,57.78
2022-12-09T19:16:35.910Z,60.17
2022-12-09T19:19:09.177Z,59.33
2022-12-09T19:21:37.677Z,62.60
2022-12-09T19:24:06.261Z,55.30
2022-12-09T19:26:35.033Z,63.80
2022-12-09T19:29:05.618Z,62.97
2022-12-09T19:31:52.352Z,62.50
2022-12-09T19:34:27.882Z,61.50
2022-12-09T19:36:57.712Z,62.20
2022-12-09T19:39:28.655Z,66.75
2022-12-09T19:41:56.197Z,73.03
2022-12-09T19:44:52.447Z,67.85
2022-12-09T19:47:11.167Z,71.00
2022-12-09T19:49:41.233Z,67.60
2022-12-09T19:52:08.228Z,67.90
2022-12-09T19:54:35.138Z,68.28
2022-12-09T19:57:02.203Z,53.90
2022-12-09T19:59:29.436Z,52.58
2022-12-09T20:01:56.597Z,48.97
2022-12-09T20:07:12.609Z,51.45
2022-12-09T20:09:39.937Z,38.97
2022-12-09T20:12:06.976Z,22.30
2022-12-09T20:14:34.006Z,10.90
2022-12-09T20:17:00.994Z,6.70
2022-12-09T20:19:28.150Z,4.18
2022-12-09T20:21:55.201Z,4.07
2022-12-09T20:24:22.389Z,6.13
2022-12-09T20:26:49.498Z,4.45
2022-12-09T20:29:16.386Z,3.47
2022-12-09T20:31:43.520Z,5.45
2022-12-09T20:34:19.173Z,4.20
2022-12-09T20:36:46.293Z,3.50
2022-12-09T20:39:16.577Z,3.40
2022-12-09T20:41:44.527Z,3.88
2022-12-09T20:44:12.894Z,4.25
2022-12-09T20:46:40.956Z,3.78
2022-12-09T20:49:08.214Z,5.05
2022-12-09T20:51:38.416Z,5.47
2022-12-09T20:54:07.434Z,3.65
2022-12-09T20:56:35.519Z,3.70
2022-12-09T20:59:02.933Z,4.82
2022-12-09T21:01:32.515Z,4.45
2022-12-09T21:04:01.551Z,3.38
2022-12-09T21:06:34.431Z,3.08
2022-12-09T21:11:29.228Z,2.72
2022-12-09T21:14:01.689Z,3.00
2022-12-09T21:16:31.138Z,2.17
2022-12-09T21:19:02.011Z,2.90
2022-12-09T21:21:34.869Z,3.05
2022-12-09T21:24:02.197Z,2.15
2022-12-09T21:26:29.565Z,2.38
2022-12-09T21:28:58.302Z,2.00
2022-12-09T21:31:28.323Z,1.40
2022-12-09T21:33:57.454Z,2.30
2022-12-09T21:36:29.437Z,1.73
2022-12-09T21:38:56.523Z,2.15
2022-12-09T21:41:26.129Z,3.20
2022-12-09T21:43:55.182Z,2.53
2022-12-09T21:46:33.727Z,1.67
2022-12-09T21:49:04.291Z,2.58
2022-12-09T21:51:32.623Z,2.38
2022-12-09T21:53:59.788Z,3.15
2022-12-09T21:56:32.944Z,1.88
2022-12-09T21:59:00.833Z,2.65
2022-12-09T22:01:34.153Z,1.90
2022-12-09T22:04:04.126Z,2.10
2022-12-09T22:06:31.466Z,2.67
2022-12-09T22:08:59.977Z,3.38
2022-12-09T22:11:29.863Z,1.30
2022-12-09T22:13:58.870Z,1.38
2022-12-09T22:16:30.147Z,2.05
2022-12-09T22:18:58.650Z,1.30
2022-12-09T22:21:28.964Z,1.80
2022-12-09T22:23:59.579Z,1.70
2022-12-09T22:26:26.971Z,1.40
2022-12-09T22:28:54.121Z,1.25
2022-12-09T22:31:32.924Z,1.58
2022-12-09T22:34:03.611Z,1.67
2022-12-09T22:36:30.698Z,1.95
2022-12-09T22:38:57.688Z,1.50
2022-12-09T22:41:27.690Z,1.58
2022-12-09T22:43:55.698Z,2.25
2022-12-09T22:46:28.452Z,1.95
2022-12-09T22:51:29.063Z,2.50
2022-12-09T22:56:24.474Z,1.40
2022-12-09T22:58:51.822Z,0.90
2022-12-09T23:01:24.560Z,2.05
2022-12-09T23:06:18.662Z,1.00
2022-12-09T23:08:46.134Z,1.10
2022-12-09T23:11:16.020Z,1.05
2022-12-09T23:13:43.462Z,0.70
2022-12-09T23:16:16.146Z,0.85
2022-12-09T23:21:24.772Z,0.70
2022-12-09T23:23:56.839Z,0.80
2022-12-09T23:26:28.607Z,0.70
2022-12-09T23:28:57.797Z,0.83
2022-12-09T23:31:31.701Z,0.50
2022-12-09T23:33:59.216Z,0.65
2022-12-09T23:36:32.162Z,0.80
2022-12-09T23:39:00.329Z,0.65
2022-12-09T23:41:28.372Z,0.88
2022-12-09T23:43:55.811Z,0.70
2022-12-09T23:46:26.335Z,0.75
2022-12-09T23:48:55.216Z,0.50
2022-12-09T23:51:30.622Z,3.55
2022-12-09T23:54:01.938Z,4.03
2022-12-09T23:56:31.370Z,5.05
2022-12-09T23:59:01.123Z,4.70
